sensor_id;sensor_type;location;lat;lon;timestamp;pressure;altitude;pressure_sealevel;temperature;humidity
53246;BME280;39569;51.090;-1.786;2022-08-25T00:00:43;101094.59;;;21.78;67.92
53246;BME280;39569;51.090;-1.786;2022-08-25T00:03:10;101100.03;;;22.01;66.99
53246;BME280;39569;51.090;-1.786;2022-08-25T00:05:37;101092.75;;;22.18;66.35
53246;BME280;39569;51.090;-1.786;2022-08-25T00:08:05;101090.09;;;22.06;66.89
53246;BME280;39569;51.090;-1.786;2022-08-25T00:10:33;101090.97;;;21.84;67.39
53246;BME280;39569;51.090;-1.786;2022-08-25T00:13:02;101105.00;;;22.04;67.10
53246;BME280;39569;51.090;-1.786;2022-08-25T00:15:29;101089.69;;;22.14;66.59
53246;BME280;39569;51.090;-1.786;2022-08-25T00:17:58;101089.56;;;22.21;66.84
53246;BME280;39569;51.090;-1.786;2022-08-25T00:20:26;101077.59;;;22.22;66.43
53246;BME280;39569;51.090;-1.786;2022-08-25T00:22:53;101074.25;;;22.31;66.32
53246;BME280;39569;51.090;-1.786;2022-08-25T00:25:21;101070.53;;;22.21;67.00
53246;BME280;39569;51.090;-1.786;2022-08-25T00:27:49;101058.09;;;22.25;66.54
53246;BME280;39569;51.090;-1.786;2022-08-25T00:30:16;101057.78;;;22.10;66.83
53246;BME280;39569;51.090;-1.786;2022-08-25T00:32:44;101067.75;;;21.93;67.79
53246;BME280;39569;51.090;-1.786;2022-08-25T00:35:12;101067.16;;;22.02;67.26
53246;BME280;39569;51.090;-1.786;2022-08-25T00:37:39;101073.88;;;22.00;67.79
53246;BME280;39569;51.090;-1.786;2022-08-25T00:40:07;101080.06;;;22.23;66.97
53246;BME280;39569;51.090;-1.786;2022-08-25T00:42:34;101080.75;;;22.02;68.20
53246;BME280;39569;51.090;-1.786;2022-08-25T00:45:03;101072.91;;;22.17;67.92
53246;BME280;39569;51.090;-1.786;2022-08-25T00:47:30;101069.69;;;21.81;69.51
53246;BME280;39569;51.090;-1.786;2022-08-25T00:49:58;101069.88;;;21.91;70.02
53246;BME280;39569;51.090;-1.786;2022-08-25T00:52:30;101077.34;;;22.23;68.62
53246;BME280;39569;51.090;-1.786;2022-08-25T00:55:01;101084.53;;;22.01;69.91
53246;BME280;39569;51.090;-1.786;2022-08-25T00:57:31;101083.03;;;22.22;69.57
53246;BME280;39569;51.090;-1.786;2022-08-25T00:59:59;101083.56;;;22.47;68.75
53246;BME280;39569;51.090;-1.786;2022-08-25T01:02:26;101079.56;;;22.38;69.30
53246;BME280;39569;51.090;-1.786;2022-08-25T01:04:53;101086.09;;;21.97;70.54
53246;BME280;39569;51.090;-1.786;2022-08-25T01:07:20;101090.47;;;22.38;68.94
53246;BME280;39569;51.090;-1.786;2022-08-25T01:09:51;101091.22;;;22.50;68.49
53246;BME280;39569;51.090;-1.786;2022-08-25T01:12:18;101095.59;;;22.23;70.05
53246;BME280;39569;51.090;-1.786;2022-08-25T01:14:46;101094.59;;;22.29;69.61
53246;BME280;39569;51.090;-1.786;2022-08-25T01:17:14;101091.59;;;22.42;69.25
53246;BME280;39569;51.090;-1.786;2022-08-25T01:19:41;101090.34;;;22.33;69.80
53246;BME280;39569;51.090;-1.786;2022-08-25T01:22:10;101092.78;;;22.46;69.77
53246;BME280;39569;51.090;-1.786;2022-08-25T01:24:39;101092.91;;;22.51;69.01
53246;BME280;39569;51.090;-1.786;2022-08-25T01:27:09;101093.00;;;22.56;69.08
53246;BME280;39569;51.090;-1.786;2022-08-25T01:29:37;101082.31;;;22.83;68.55
53246;BME280;39569;51.090;-1.786;2022-08-25T01:32:09;101085.97;;;22.32;70.68
53246;BME280;39569;51.090;-1.786;2022-08-25T01:34:38;101085.22;;;22.76;68.70
53246;BME280;39569;51.090;-1.786;2022-08-25T01:37:07;101081.81;;;22.69;69.19
53246;BME280;39569;51.090;-1.786;2022-08-25T01:39:36;101078.97;;;22.64;69.46
53246;BME280;39569;51.090;-1.786;2022-08-25T01:42:18;101074.25;;;22.88;68.52
53246;BME280;39569;51.090;-1.786;2022-08-25T01:44:49;101066.88;;;22.88;69.11
53246;BME280;39569;51.090;-1.786;2022-08-25T01:47:16;101058.44;;;22.57;69.61
53246;BME280;39569;51.090;-1.786;2022-08-25T01:49:43;101058.94;;;22.42;70.67
53246;BME280;39569;51.090;-1.786;2022-08-25T01:52:14;101054.28;;;22.54;70.50
53246;BME280;39569;51.090;-1.786;2022-08-25T01:54:42;101047.56;;;22.57;70.42
53246;BME280;39569;51.090;-1.786;2022-08-25T01:57:09;101042.38;;;22.43;70.75
53246;BME280;39569;51.090;-1.786;2022-08-25T01:59:36;101039.13;;;22.30;71.19
53246;BME280;39569;51.090;-1.786;2022-08-25T02:02:03;101035.59;;;22.18;71.49
53246;BME280;39569;51.090;-1.786;2022-08-25T02:04:30;101043.00;;;22.34;70.84
53246;BME280;39569;51.090;-1.786;2022-08-25T02:06:57;101027.75;;;22.61;70.08
53246;BME280;39569;51.090;-1.786;2022-08-25T02:09:25;101015.22;;;22.32;71.43
53246;BME280;39569;51.090;-1.786;2022-08-25T02:11:53;101007.63;;;22.06;71.79
53246;BME280;39569;51.090;-1.786;2022-08-25T02:14:21;100997.47;;;22.01;72.53
53246;BME280;39569;51.090;-1.786;2022-08-25T02:16:50;101010.50;;;22.44;70.36
53246;BME280;39569;51.090;-1.786;2022-08-25T02:19:18;101024.31;;;22.54;70.38
53246;BME280;39569;51.090;-1.786;2022-08-25T02:21:46;101027.16;;;22.59;70.41
53246;BME280;39569;51.090;-1.786;2022-08-25T02:24:13;101032.94;;;22.06;71.96
53246;BME280;39569;51.090;-1.786;2022-08-25T02:26:40;101031.53;;;22.32;71.26
53246;BME280;39569;51.090;-1.786;2022-08-25T02:29:09;101035.53;;;22.41;70.94
53246;BME280;39569;51.090;-1.786;2022-08-25T02:31:36;101031.50;;;22.15;71.51
53246;BME280;39569;51.090;-1.786;2022-08-25T02:34:04;101022.97;;;22.40;71.21
53246;BME280;39569;51.090;-1.786;2022-08-25T02:36:31;101015.22;;;22.32;70.80
53246;BME280;39569;51.090;-1.786;2022-08-25T02:38:58;101013.81;;;22.74;69.47
53246;BME280;39569;51.090;-1.786;2022-08-25T02:41:26;101016.47;;;22.41;71.00
53246;BME280;39569;51.090;-1.786;2022-08-25T02:43:53;101005.38;;;22.31;70.70
53246;BME280;39569;51.090;-1.786;2022-08-25T02:46:22;100995.56;;;22.30;70.78
53246;BME280;39569;51.090;-1.786;2022-08-25T02:48:50;100989.34;;;22.18;71.48
53246;BME280;39569;51.090;-1.786;2022-08-25T02:51:18;100984.66;;;22.13;71.08
53246;BME280;39569;51.090;-1.786;2022-08-25T02:53:46;101006.47;;;22.02;71.79
53246;BME280;39569;51.090;-1.786;2022-08-25T02:56:15;101011.06;;;22.01;71.77
53246;BME280;39569;51.090;-1.786;2022-08-25T02:58:42;101000.75;;;22.60;69.91
53246;BME280;39569;51.090;-1.786;2022-08-25T03:01:10;100989.59;;;22.16;71.09
53246;BME280;39569;51.090;-1.786;2022-08-25T03:03:40;101002.31;;;22.56;69.67
53246;BME280;39569;51.090;-1.786;2022-08-25T03:06:08;100996.78;;;22.22;70.97
53246;BME280;39569;51.090;-1.786;2022-08-25T03:08:35;100992.72;;;22.08;71.65
53246;BME280;39569;51.090;-1.786;2022-08-25T03:11:02;101001.16;;;22.68;69.66
53246;BME280;39569;51.090;-1.786;2022-08-25T03:13:30;100992.66;;;22.20;70.83
53246;BME280;39569;51.090;-1.786;2022-08-25T03:15:57;100986.56;;;22.29;70.43
53246;BME280;39569;51.090;-1.786;2022-08-25T03:18:24;100981.38;;;22.56;69.61
53246;BME280;39569;51.090;-1.786;2022-08-25T03:20:53;100992.72;;;22.08;71.04
53246;BME280;39569;51.090;-1.786;2022-08-25T03:23:20;100986.44;;;22.08;71.58
53246;BME280;39569;51.090;-1.786;2022-08-25T03:25:46;100991.03;;;22.35;69.95
53246;BME280;39569;51.090;-1.786;2022-08-25T03:28:31;100990.88;;;22.42;69.71
53246;BME280;39569;51.090;-1.786;2022-08-25T03:30:59;100978.75;;;22.33;70.25
53246;BME280;39569;51.090;-1.786;2022-08-25T03:33:26;100968.66;;;21.89;71.87
53246;BME280;39569;51.090;-1.786;2022-08-25T03:35:55;100967.31;;;22.03;71.39
53246;BME280;39569;51.090;-1.786;2022-08-25T03:38:22;100977.00;;;22.10;70.70
53246;BME280;39569;51.090;-1.786;2022-08-25T03:40:50;100980.72;;;21.93;71.54
53246;BME280;39569;51.090;-1.786;2022-08-25T03:43:17;101007.28;;;22.30;70.05
53246;BME280;39569;51.090;-1.786;2022-08-25T03:45:45;101014.75;;;22.52;68.88
53246;BME280;39569;51.090;-1.786;2022-08-25T03:48:12;101004.34;;;22.48;69.23
53246;BME280;39569;51.090;-1.786;2022-08-25T03:50:43;100999.44;;;22.17;69.94
53246;BME280;39569;51.090;-1.786;2022-08-25T03:53:12;100998.53;;;22.28;70.38
53246;BME280;39569;51.090;-1.786;2022-08-25T03:55:39;100991.47;;;22.44;69.13
53246;BME280;39569;51.090;-1.786;2022-08-25T03:58:06;100990.16;;;21.90;71.06
53246;BME280;39569;51.090;-1.786;2022-08-25T04:00:34;101007.16;;;22.54;69.01
53246;BME280;39569;51.090;-1.786;2022-08-25T04:03:01;101003.34;;;22.38;68.97
53246;BME280;39569;51.090;-1.786;2022-08-25T04:05:27;100996.63;;;22.29;69.07
53246;BME280;39569;51.090;-1.786;2022-08-25T04:07:54;101001.09;;;22.35;68.82
53246;BME280;39569;51.090;-1.786;2022-08-25T04:10:22;101001.28;;;22.57;68.44
53246;BME280;39569;51.090;-1.786;2022-08-25T04:12:49;100991.00;;;22.47;68.35
53246;BME280;39569;51.090;-1.786;2022-08-25T04:15:16;101003.25;;;22.33;68.91
53246;BME280;39569;51.090;-1.786;2022-08-25T04:17:43;100997.22;;;22.31;68.81
53246;BME280;39569;51.090;-1.786;2022-08-25T04:20:10;100990.38;;;22.00;69.77
53246;BME280;39569;51.090;-1.786;2022-08-25T04:22:37;100988.78;;;22.16;69.62
53246;BME280;39569;51.090;-1.786;2022-08-25T04:25:05;100996.19;;;21.92;70.01
53246;BME280;39569;51.090;-1.786;2022-08-25T04:27:35;101002.44;;;22.04;69.59
53246;BME280;39569;51.090;-1.786;2022-08-25T04:30:02;100999.06;;;21.86;69.94
53246;BME280;39569;51.090;-1.786;2022-08-25T04:32:29;101000.44;;;22.00;69.73
53246;BME280;39569;51.090;-1.786;2022-08-25T04:34:56;101004.59;;;21.91;70.00
53246;BME280;39569;51.090;-1.786;2022-08-25T04:37:23;101010.38;;;21.94;70.22
53246;BME280;39569;51.090;-1.786;2022-08-25T04:39:49;101015.53;;;22.07;69.06
53246;BME280;39569;51.090;-1.786;2022-08-25T04:42:16;101020.13;;;21.79;70.23
53246;BME280;39569;51.090;-1.786;2022-08-25T04:44:44;101028.16;;;22.25;68.59
53246;BME280;39569;51.090;-1.786;2022-08-25T04:47:11;101024.94;;;21.88;69.99
53246;BME280;39569;51.090;-1.786;2022-08-25T04:49:38;101025.19;;;21.87;69.90
53246;BME280;39569;51.090;-1.786;2022-08-25T04:52:05;101024.44;;;22.03;69.79
53246;BME280;39569;51.090;-1.786;2022-08-25T04:54:32;101023.75;;;21.96;69.90
53246;BME280;39569;51.090;-1.786;2022-08-25T04:56:58;101022.41;;;22.38;68.31
53246;BME280;39569;51.090;-1.786;2022-08-25T04:59:26;101026.19;;;22.09;69.13
53246;BME280;39569;51.090;-1.786;2022-08-25T05:01:54;101026.56;;;22.29;68.60
53246;BME280;39569;51.090;-1.786;2022-08-25T05:04:21;101021.28;;;22.22;68.66
53246;BME280;39569;51.090;-1.786;2022-08-25T05:06:48;101021.59;;;21.98;69.48
53246;BME280;39569;51.090;-1.786;2022-08-25T05:09:15;101019.47;;;22.00;69.98
53246;BME280;39569;51.090;-1.786;2022-08-25T05:11:42;101027.72;;;22.33;68.46
53246;BME280;39569;51.090;-1.786;2022-08-25T05:14:09;101030.06;;;22.13;69.65
53246;BME280;39569;51.090;-1.786;2022-08-25T05:16:39;101045.81;;;22.11;69.45
53246;BME280;39569;51.090;-1.786;2022-08-25T05:19:07;101043.50;;;22.59;68.05
53246;BME280;39569;51.090;-1.786;2022-08-25T05:21:34;101041.50;;;22.55;67.75
53246;BME280;39569;51.090;-1.786;2022-08-25T05:24:01;101041.53;;;22.43;68.13
53246;BME280;39569;51.090;-1.786;2022-08-25T05:26:30;101040.88;;;22.36;68.43
53246;BME280;39569;51.090;-1.786;2022-08-25T05:28:59;101047.47;;;22.68;67.76
53246;BME280;39569;51.090;-1.786;2022-08-25T05:31:27;101046.16;;;22.87;66.71
53246;BME280;39569;51.090;-1.786;2022-08-25T05:33:54;101044.41;;;22.65;67.54
53246;BME280;39569;51.090;-1.786;2022-08-25T05:36:24;101057.44;;;22.63;67.57
53246;BME280;39569;51.090;-1.786;2022-08-25T05:38:52;101058.56;;;22.78;67.70
53246;BME280;39569;51.090;-1.786;2022-08-25T05:41:21;101052.53;;;22.76;68.36
53246;BME280;39569;51.090;-1.786;2022-08-25T05:43:51;101045.19;;;22.77;67.92
53246;BME280;39569;51.090;-1.786;2022-08-25T05:46:19;101040.66;;;21.98;71.27
53246;BME280;39569;51.090;-1.786;2022-08-25T05:48:46;101038.97;;;22.36;69.34
53246;BME280;39569;51.090;-1.786;2022-08-25T05:51:14;101033.09;;;22.56;69.27
53246;BME280;39569;51.090;-1.786;2022-08-25T05:53:44;101040.03;;;22.07;71.22
53246;BME280;39569;51.090;-1.786;2022-08-25T05:56:12;101040.25;;;22.17;70.43
53246;BME280;39569;51.090;-1.786;2022-08-25T05:58:40;101041.03;;;22.46;70.03
53246;BME280;39569;51.090;-1.786;2022-08-25T06:01:07;101040.25;;;22.45;69.69
53246;BME280;39569;51.090;-1.786;2022-08-25T06:03:52;101040.00;;;22.47;70.39
53246;BME280;39569;51.090;-1.786;2022-08-25T06:06:19;101053.25;;;22.72;69.97
53246;BME280;39569;51.090;-1.786;2022-08-25T06:08:48;101046.09;;;22.54;69.55
53246;BME280;39569;51.090;-1.786;2022-08-25T06:11:16;101039.47;;;22.33;70.49
53246;BME280;39569;51.090;-1.786;2022-08-25T06:13:42;101043.50;;;22.76;69.27
53246;BME280;39569;51.090;-1.786;2022-08-25T06:16:10;101048.06;;;22.14;70.82
53246;BME280;39569;51.090;-1.786;2022-08-25T06:18:37;101042.38;;;22.43;69.88
53246;BME280;39569;51.090;-1.786;2022-08-25T06:21:08;101050.94;;;22.35;70.45
53246;BME280;39569;51.090;-1.786;2022-08-25T06:23:36;101055.47;;;22.58;70.13
53246;BME280;39569;51.090;-1.786;2022-08-25T06:26:05;101053.66;;;22.64;68.91
53246;BME280;39569;51.090;-1.786;2022-08-25T06:28:32;101049.47;;;22.73;68.08
53246;BME280;39569;51.090;-1.786;2022-08-25T06:31:00;101049.13;;;22.41;68.67
53246;BME280;39569;51.090;-1.786;2022-08-25T06:33:27;101040.53;;;22.04;69.56
53246;BME280;39569;51.090;-1.786;2022-08-25T06:35:55;101035.94;;;21.93;70.33
53246;BME280;39569;51.090;-1.786;2022-08-25T06:38:23;101041.22;;;22.11;69.41
53246;BME280;39569;51.090;-1.786;2022-08-25T06:40:50;101033.50;;;21.69;70.80
53246;BME280;39569;51.090;-1.786;2022-08-25T06:43:18;101042.44;;;21.92;69.30
53246;BME280;39569;51.090;-1.786;2022-08-25T06:45:45;101052.47;;;22.03;69.34
53246;BME280;39569;51.090;-1.786;2022-08-25T06:48:13;101053.31;;;22.32;69.29
53246;BME280;39569;51.090;-1.786;2022-08-25T06:50:40;101061.47;;;22.32;69.59
53246;BME280;39569;51.090;-1.786;2022-08-25T06:53:07;101059.66;;;22.09;69.04
53246;BME280;39569;51.090;-1.786;2022-08-25T06:55:34;101061.31;;;22.38;67.92
53246;BME280;39569;51.090;-1.786;2022-08-25T06:58:01;101066.69;;;22.33;68.38
53246;BME280;39569;51.090;-1.786;2022-08-25T07:00:30;101069.94;;;22.47;68.21
53246;BME280;39569;51.090;-1.786;2022-08-25T07:02:58;101074.25;;;22.31;68.98
53246;BME280;39569;51.090;-1.786;2022-08-25T07:05:26;101079.06;;;22.41;67.67
53246;BME280;39569;51.090;-1.786;2022-08-25T07:07:53;101080.91;;;22.64;67.55
53246;BME280;39569;51.090;-1.786;2022-08-25T07:10:20;101076.38;;;22.29;67.66
53246;BME280;39569;51.090;-1.786;2022-08-25T07:12:47;101080.59;;;22.48;67.81
53246;BME280;39569;51.090;-1.786;2022-08-25T07:15:13;101082.84;;;22.12;68.45
53246;BME280;39569;51.090;-1.786;2022-08-25T07:17:42;101074.41;;;22.25;68.52
53246;BME280;39569;51.090;-1.786;2022-08-25T07:20:09;101077.41;;;22.40;67.88
53246;BME280;39569;51.090;-1.786;2022-08-25T07:22:36;101083.81;;;22.06;69.08
53246;BME280;39569;51.090;-1.786;2022-08-25T07:25:03;101085.75;;;21.71;69.97
53246;BME280;39569;51.090;-1.786;2022-08-25T07:27:30;101079.03;;;22.24;69.47
53246;BME280;39569;51.090;-1.786;2022-08-25T07:29:57;101075.47;;;22.52;67.35
53246;BME280;39569;51.090;-1.786;2022-08-25T07:32:24;101067.06;;;21.74;68.84
53246;BME280;39569;51.090;-1.786;2022-08-25T07:34:52;101062.06;;;22.34;67.24
53246;BME280;39569;51.090;-1.786;2022-08-25T07:37:37;101048.97;;;21.91;69.81
53246;BME280;39569;51.090;-1.786;2022-08-25T07:40:05;101037.94;;;22.26;67.77
53246;BME280;39569;51.090;-1.786;2022-08-25T07:42:32;101039.56;;;22.10;68.24
53246;BME280;39569;51.090;-1.786;2022-08-25T07:44:59;101062.81;;;21.67;69.79
53246;BME280;39569;51.090;-1.786;2022-08-25T07:47:26;101072.75;;;21.73;69.78
53246;BME280;39569;51.090;-1.786;2022-08-25T07:49:54;101069.31;;;21.66;69.02
53246;BME280;39569;51.090;-1.786;2022-08-25T07:52:20;101060.34;;;21.42;71.19
53246;BME280;39569;51.090;-1.786;2022-08-25T07:54:47;101055.25;;;21.69;69.14
53246;BME280;39569;51.090;-1.786;2022-08-25T07:57:14;101057.16;;;21.45;70.57
53246;BME280;39569;51.090;-1.786;2022-08-25T07:59:43;101037.84;;;21.81;69.47
53246;BME280;39569;51.090;-1.786;2022-08-25T08:02:12;101037.75;;;21.65;70.17
53246;BME280;39569;51.090;-1.786;2022-08-25T08:04:39;101059.53;;;21.30;71.02
53246;BME280;39569;51.090;-1.786;2022-08-25T08:07:08;101062.72;;;21.50;70.92
53246;BME280;39569;51.090;-1.786;2022-08-25T08:09:35;101047.34;;;21.56;70.26
53246;BME280;39569;51.090;-1.786;2022-08-25T08:12:02;101049.59;;;21.24;70.13
53246;BME280;39569;51.090;-1.786;2022-08-25T08:14:31;101071.22;;;21.19;71.30
53246;BME280;39569;51.090;-1.786;2022-08-25T08:16:58;101089.28;;;21.13;71.57
53246;BME280;39569;51.090;-1.786;2022-08-25T08:19:25;101096.16;;;21.50;70.34
53246;BME280;39569;51.090;-1.786;2022-08-25T08:21:52;101095.09;;;21.28;71.92
53246;BME280;39569;51.090;-1.786;2022-08-25T08:24:20;101107.28;;;21.37;70.89
53246;BME280;39569;51.090;-1.786;2022-08-25T08:26:47;101097.47;;;21.48;71.50
53246;BME280;39569;51.090;-1.786;2022-08-25T08:29:14;101089.91;;;21.50;70.85
53246;BME280;39569;51.090;-1.786;2022-08-25T08:31:41;101077.84;;;21.81;69.54
53246;BME280;39569;51.090;-1.786;2022-08-25T08:34:08;101110.69;;;21.68;70.14
53246;BME280;39569;51.090;-1.786;2022-08-25T08:36:34;101125.00;;;21.75;69.65
53246;BME280;39569;51.090;-1.786;2022-08-25T08:39:01;101135.19;;;21.91;69.49
53246;BME280;39569;51.090;-1.786;2022-08-25T08:42:02;101137.63;;;21.46;70.68
53246;BME280;39569;51.090;-1.786;2022-08-25T08:45:20;101136.94;;;21.39;70.71
53246;BME280;39569;51.090;-1.786;2022-08-25T08:48:12;101125.09;;;21.33;70.69
53246;BME280;39569;51.090;-1.786;2022-08-25T08:50:48;101095.28;;;21.04;71.78
53246;BME280;39569;51.090;-1.786;2022-08-25T08:53:21;101111.28;;;21.46;71.18
53246;BME280;39569;51.090;-1.786;2022-08-25T08:55:53;101112.09;;;21.35;70.72
53246;BME280;39569;51.090;-1.786;2022-08-25T08:58:24;101109.84;;;21.44;70.46
53246;BME280;39569;51.090;-1.786;2022-08-25T09:00:55;101104.53;;;21.61;70.14
53246;BME280;39569;51.090;-1.786;2022-08-25T09:03:30;101089.41;;;21.65;69.79
53246;BME280;39569;51.090;-1.786;2022-08-25T09:06:01;101093.34;;;21.45;71.23
53246;BME280;39569;51.090;-1.786;2022-08-25T09:08:29;101079.97;;;20.80;71.66
53246;BME280;39569;51.090;-1.786;2022-08-25T09:11:00;101074.41;;;21.04;71.71
53246;BME280;39569;51.090;-1.786;2022-08-25T09:13:39;101077.00;;;21.57;70.83
53246;BME280;39569;51.090;-1.786;2022-08-25T09:16:15;101090.94;;;21.61;70.35
53246;BME280;39569;51.090;-1.786;2022-08-25T09:19:09;101079.50;;;21.35;70.50
53246;BME280;39569;51.090;-1.786;2022-08-25T09:21:43;101062.00;;;21.31;70.55
53246;BME280;39569;51.090;-1.786;2022-08-25T09:24:22;101074.31;;;21.34;70.91
53246;BME280;39569;51.090;-1.786;2022-08-25T09:27:01;101068.97;;;21.27;70.39
53246;BME280;39569;51.090;-1.786;2022-08-25T09:29:56;101074.50;;;21.79;70.62
53246;BME280;39569;51.090;-1.786;2022-08-25T09:32:26;101079.47;;;21.70;70.28
53246;BME280;39569;51.090;-1.786;2022-08-25T09:34:53;101076.28;;;21.85;69.89
53246;BME280;39569;51.090;-1.786;2022-08-25T09:37:22;101077.22;;;21.90;69.75
53246;BME280;39569;51.090;-1.786;2022-08-25T09:39:49;101080.97;;;22.40;68.29
53246;BME280;39569;51.090;-1.786;2022-08-25T09:42:17;101087.91;;;22.20;68.74
53246;BME280;39569;51.090;-1.786;2022-08-25T09:44:47;101083.38;;;21.74;70.85
53246;BME280;39569;51.090;-1.786;2022-08-25T09:47:24;101089.72;;;22.42;68.77
53246;BME280;39569;51.090;-1.786;2022-08-25T09:49:56;101094.31;;;22.42;68.90
53246;BME280;39569;51.090;-1.786;2022-08-25T09:52:32;101096.41;;;22.23;69.50
53246;BME280;39569;51.090;-1.786;2022-08-25T09:55:13;101106.66;;;22.33;69.16
53246;BME280;39569;51.090;-1.786;2022-08-25T09:57:47;101100.75;;;21.85;69.99
53246;BME280;39569;51.090;-1.786;2022-08-25T10:00:18;101106.31;;;22.41;68.67
53246;BME280;39569;51.090;-1.786;2022-08-25T10:03:02;101106.56;;;22.28;68.63
53246;BME280;39569;51.090;-1.786;2022-08-25T10:05:30;101106.81;;;22.26;69.71
53246;BME280;39569;51.090;-1.786;2022-08-25T10:08:01;101100.81;;;22.53;68.67
53246;BME280;39569;51.090;-1.786;2022-08-25T10:10:31;101102.53;;;22.70;67.08
53246;BME280;39569;51.090;-1.786;2022-08-25T10:12:58;101107.31;;;22.52;68.72
53246;BME280;39569;51.090;-1.786;2022-08-25T10:15:31;101099.69;;;22.37;68.67
53246;BME280;39569;51.090;-1.786;2022-08-25T10:18:19;101102.91;;;22.34;69.55
53246;BME280;39569;51.090;-1.786;2022-08-25T10:21:00;101105.00;;;22.43;69.05
53246;BME280;39569;51.090;-1.786;2022-08-25T10:23:28;101111.25;;;22.56;68.38
53246;BME280;39569;51.090;-1.786;2022-08-25T10:25:55;101106.13;;;22.47;67.76
53246;BME280;39569;51.090;-1.786;2022-08-25T10:28:31;101113.50;;;22.75;67.96
53246;BME280;39569;51.090;-1.786;2022-08-25T10:31:09;101119.22;;;22.90;68.00
53246;BME280;39569;51.090;-1.786;2022-08-25T10:33:46;101112.28;;;22.15;69.58
53246;BME280;39569;51.090;-1.786;2022-08-25T10:36:16;101115.38;;;22.07;69.04
53246;BME280;39569;51.090;-1.786;2022-08-25T10:38:50;101119.59;;;22.26;68.70
53246;BME280;39569;51.090;-1.786;2022-08-25T10:41:39;101120.59;;;22.60;68.21
53246;BME280;39569;51.090;-1.786;2022-08-25T10:44:15;101112.16;;;22.49;67.72
53246;BME280;39569;51.090;-1.786;2022-08-25T10:47:15;101119.78;;;21.85;69.56
53246;BME280;39569;51.090;-1.786;2022-08-25T10:49:50;101126.19;;;22.41;68.47
53246;BME280;39569;51.090;-1.786;2022-08-25T10:52:24;101129.56;;;22.20;68.21
53246;BME280;39569;51.090;-1.786;2022-08-25T10:54:57;101132.84;;;22.34;68.02
53246;BME280;39569;51.090;-1.786;2022-08-25T10:57:33;101136.88;;;22.31;67.45
53246;BME280;39569;51.090;-1.786;2022-08-25T11:00:04;101136.53;;;22.16;68.55
53246;BME280;39569;51.090;-1.786;2022-08-25T11:03:01;101140.44;;;22.20;68.00
53246;BME280;39569;51.090;-1.786;2022-08-25T11:05:37;101140.09;;;22.17;67.88
53246;BME280;39569;51.090;-1.786;2022-08-25T11:08:10;101136.59;;;21.82;68.72
53246;BME280;39569;51.090;-1.786;2022-08-25T11:10:43;101143.81;;;22.39;68.36
53246;BME280;39569;51.090;-1.786;2022-08-25T11:13:16;101135.03;;;22.60;67.63
53246;BME280;39569;51.090;-1.786;2022-08-25T11:15:52;101139.47;;;22.38;68.37
53246;BME280;39569;51.090;-1.786;2022-08-25T11:18:22;101139.75;;;22.53;68.26
53246;BME280;39569;51.090;-1.786;2022-08-25T11:21:00;101132.78;;;22.17;67.84
53246;BME280;39569;51.090;-1.786;2022-08-25T11:23:36;101141.38;;;22.26;68.76
53246;BME280;39569;51.090;-1.786;2022-08-25T11:26:07;101131.75;;;22.35;68.61
53246;BME280;39569;51.090;-1.786;2022-08-25T11:28:46;101140.59;;;22.42;67.95
53246;BME280;39569;51.090;-1.786;2022-08-25T11:31:16;101141.69;;;22.41;68.11
53246;BME280;39569;51.090;-1.786;2022-08-25T11:33:45;101142.13;;;22.61;66.30
53246;BME280;39569;51.090;-1.786;2022-08-25T11:36:21;101141.94;;;22.39;66.94
53246;BME280;39569;51.090;-1.786;2022-08-25T11:38:58;101151.72;;;22.52;66.72
53246;BME280;39569;51.090;-1.786;2022-08-25T11:41:34;101156.31;;;22.52;66.28
53246;BME280;39569;51.090;-1.786;2022-08-25T11:44:16;101161.44;;;22.48;67.43
53246;BME280;39569;51.090;-1.786;2022-08-25T11:46:53;101154.03;;;22.32;67.11
53246;BME280;39569;51.090;-1.786;2022-08-25T11:49:43;101155.94;;;22.20;67.57
53246;BME280;39569;51.090;-1.786;2022-08-25T11:52:45;101163.56;;;22.58;66.23
53246;BME280;39569;51.090;-1.786;2022-08-25T11:55:16;101159.72;;;22.30;67.09
53246;BME280;39569;51.090;-1.786;2022-08-25T11:57:45;101159.63;;;22.54;66.34
53246;BME280;39569;51.090;-1.786;2022-08-25T12:00:14;101159.47;;;22.72;65.62
53246;BME280;39569;51.090;-1.786;2022-08-25T12:02:43;101155.66;;;22.56;65.50
53246;BME280;39569;51.090;-1.786;2022-08-25T12:05:52;101168.75;;;22.19;67.41
53246;BME280;39569;51.090;-1.786;2022-08-25T12:08:52;101164.34;;;22.07;67.12
53246;BME280;39569;51.090;-1.786;2022-08-25T12:11:45;101176.16;;;22.35;65.73
53246;BME280;39569;51.090;-1.786;2022-08-25T12:14:35;101171.63;;;22.41;65.68
53246;BME280;39569;51.090;-1.786;2022-08-25T12:17:19;101175.03;;;21.97;66.76
53246;BME280;39569;51.090;-1.786;2022-08-25T12:19:51;101178.94;;;22.52;65.05
53246;BME280;39569;51.090;-1.786;2022-08-25T12:22:37;101181.66;;;22.64;65.14
53246;BME280;39569;51.090;-1.786;2022-08-25T12:25:08;101178.88;;;22.75;66.02
53246;BME280;39569;51.090;-1.786;2022-08-25T12:27:44;101182.09;;;22.72;65.86
53246;BME280;39569;51.090;-1.786;2022-08-25T12:30:18;101183.53;;;22.75;65.58
53246;BME280;39569;51.090;-1.786;2022-08-25T12:33:00;101183.06;;;22.94;65.07
53246;BME280;39569;51.090;-1.786;2022-08-25T12:35:37;101175.06;;;22.88;64.62
53246;BME280;39569;51.090;-1.786;2022-08-25T12:38:08;101191.41;;;22.36;66.23
53246;BME280;39569;51.090;-1.786;2022-08-25T12:40:52;101184.41;;;22.92;63.93
53246;BME280;39569;51.090;-1.786;2022-08-25T12:43:25;101182.38;;;22.87;63.82
53246;BME280;39569;51.090;-1.786;2022-08-25T12:46:30;101187.50;;;23.95;61.00
53246;BME280;39569;51.090;-1.786;2022-08-25T12:48:53;101185.78;;;23.89;60.78
53246;BME280;39569;51.090;-1.786;2022-08-25T12:51:23;101192.34;;;24.69;59.64
53246;BME280;39569;51.090;-1.786;2022-08-25T12:53:52;101195.38;;;24.51;59.88
53246;BME280;39569;51.090;-1.786;2022-08-25T12:56:29;101195.22;;;24.36;58.28
53246;BME280;39569;51.090;-1.786;2022-08-25T12:59:11;101202.91;;;24.01;59.93